Time;durP1;ratioP1;P1;durP2;ratioP2;P2;SDS_P1;SDS_P2;PMS_P1;PMS_P2;Temp;Humidity;BMP_temperature;BMP_pressure;BME280_temperature;BME280_humidity;BME280_pressure;Samples;Min_cycle;Max_cycle;Signal;HPM_P1;HPM_P2
2023/06/16 00:00:33;;;;;;;1999.90;999.90;;;;;;;28.80;33.96;101991.97;5052225;28;20078;-66
2023/06/16 00:02:58;;;;;;;1999.90;999.90;;;;;;;28.75;34.54;101987.78;5051646;28;20020;-66
2023/06/16 00:05:24;;;;;;;1999.90;999.90;;;;;;;29.20;34.26;101992.72;5051290;28;20424;-66
2023/06/16 00:07:49;;;;;;;1999.90;999.90;;;;;;;29.34;34.03;101989.09;5069114;28;20430;-66
2023/06/16 00:10:14;;;;;;;1999.90;999.90;;;;;;;29.30;33.72;101986.72;5069361;28;20039;-66
2023/06/16 00:12:40;;;;;;;1999.90;999.90;;;;;;;29.50;33.55;101988.84;5069561;28;20480;-66
2023/06/16 00:15:08;;;;;;;1999.90;999.90;;;;;;;29.35;33.49;101989.97;5052048;28;20091;-66
2023/06/16 00:17:36;;;;;;;1999.90;999.90;;;;;;;29.21;33.84;101993.59;5051110;28;20021;-66
2023/06/16 00:20:03;;;;;;;1999.90;999.90;;;;;;;29.37;33.57;101988.00;5051918;28;20024;-66
2023/06/16 00:22:28;;;;;;;1999.90;999.90;;;;;;;29.52;33.69;101986.03;5069658;28;20099;-66
2023/06/16 00:24:54;;;;;;;1999.90;999.90;;;;;;;29.54;32.91;101979.56;5050648;28;20463;-66
2023/06/16 00:27:23;;;;;;;1999.90;999.90;;;;;;;29.45;33.13;101985.63;5051948;28;20032;-66
2023/06/16 00:29:49;;;;;;;1999.90;999.90;;;;;;;29.57;33.13;101979.34;5069318;28;20362;-65
2023/06/16 00:32:15;;;;;;;1999.90;999.90;;;;;;;29.49;33.40;101981.72;5051187;28;20028;-66
2023/06/16 00:34:40;;;;;;;1999.90;999.90;;;;;;;29.35;33.91;101984.59;5051222;28;20515;-66
2023/06/16 00:37:05;;;;;;;1999.90;999.90;;;;;;;29.32;33.71;101990.16;5051653;28;20464;-66
2023/06/16 00:39:31;;;;;;;1999.90;999.90;;;;;;;29.31;34.10;101983.09;5050833;28;20024;-66
2023/06/16 00:41:56;;;;;;;1999.90;999.90;;;;;;;29.19;33.94;101990.16;5051116;28;20047;-66
2023/06/16 00:44:22;;;;;;;1999.90;999.90;;;;;;;29.01;34.53;101986.94;5051571;28;20495;-66
2023/06/16 00:46:47;;;;;;;1999.90;999.90;;;;;;;29.13;34.14;101986.06;5068338;28;20085;-66
2023/06/16 00:49:13;;;;;;;1999.90;999.90;;;;;;;29.23;33.86;101981.75;5051236;28;20024;-66
2023/06/16 00:51:39;;;;;;;1999.90;999.90;;;;;;;29.15;34.40;101981.44;5051057;28;20126;-66
2023/06/16 00:54:06;;;;;;;1999.90;999.90;;;;;;;29.24;33.51;101978.13;5050949;28;20534;-66
2023/06/16 00:56:33;;;;;;;1999.90;999.90;;;;;;;29.16;34.06;101979.63;5051295;28;20055;-66
2023/06/16 00:58:59;;;;;;;1999.90;999.90;;;;;;;29.40;33.48;101975.19;5050917;28;20585;-66
2023/06/16 01:01:28;;;;;;;1999.90;999.90;;;;;;;29.06;34.06;101979.41;5068612;28;20031;-66
2023/06/16 01:03:53;;;;;;;1999.90;999.90;;;;;;;29.22;34.00;101979.16;5050896;28;20119;-66
2023/06/16 01:06:37;;;;;;;1999.90;999.90;;;;;;;29.05;34.18;101983.91;5051331;28;20399;-65
2023/06/16 01:09:26;;;;;;;1999.90;999.90;;;;;;;29.00;34.20;101980.69;5051540;28;20024;-65
2023/06/16 01:11:55;;;;;;;1999.90;999.90;;;;;;;28.86;34.06;101973.59;5051020;28;20392;-66
2023/06/16 01:14:31;;;;;;;1999.90;999.90;;;;;;;28.96;34.27;101972.94;5050231;28;20554;-65
2023/06/16 01:16:58;;;;;;;1999.90;999.90;;;;;;;28.84;33.97;101970.16;5050877;28;20059;-66
2023/06/16 01:19:37;;;;;;;1999.90;999.90;;;;;;;28.89;34.31;101972.50;5052900;28;20021;-66
2023/06/16 01:22:12;;;;;;;1999.90;999.90;;;;;;;28.86;33.83;101976.28;5054299;28;20050;-66
2023/06/16 01:24:42;;;;;;;1999.90;999.90;;;;;;;29.06;33.60;101974.03;5054734;28;20035;-66
2023/06/16 01:27:08;;;;;;;1999.90;999.90;;;;;;;28.74;34.55;101977.13;5073123;28;20020;-65
2023/06/16 01:29:37;;;;;;;1999.90;999.90;;;;;;;28.80;34.05;101968.66;5054256;28;20047;-66
2023/06/16 01:32:05;;;;;;;1999.90;999.90;;;;;;;28.63;34.58;101975.19;5054941;28;20027;-66
2023/06/16 01:34:33;;;;;;;1999.90;999.90;;;;;;;28.86;34.38;101965.50;5054388;28;20031;-66
2023/06/16 01:36:59;;;;;;;1999.90;999.90;;;;;;;28.99;33.82;101978.09;5072378;28;20091;-66
2023/06/16 01:39:26;;;;;;;1999.90;999.90;;;;;;;28.73;34.33;101972.75;5055042;28;20024;-66
2023/06/16 01:41:52;;;;;;;1999.90;999.90;;;;;;;28.77;34.06;101972.41;5053596;28;20059;-66
2023/06/16 01:44:18;;;;;;;1999.90;999.90;;;;;;;28.78;34.44;101978.63;5054974;28;20020;-66
2023/06/16 01:46:44;;;;;;;1999.90;999.90;;;;;;;28.46;34.92;101970.94;5054309;28;20073;-66
2023/06/16 01:49:10;;;;;;;1999.90;999.90;;;;;;;28.60;34.41;101956.53;5054177;28;20032;-66
2023/06/16 01:51:36;;;;;;;1999.90;999.90;;;;;;;28.20;35.25;101954.75;5053961;28;20036;-66
2023/06/16 01:54:01;;;;;;;1999.90;999.90;;;;;;;28.42;34.38;101964.03;5054608;28;20105;-65
2023/06/16 01:56:29;;;;;;;1999.90;999.90;;;;;;;28.48;34.55;101952.88;5090921;28;20068;-66
2023/06/16 01:58:55;;;;;;;1999.90;999.90;;;;;;;28.58;34.69;101953.97;5092332;28;20030;-66
2023/06/16 02:01:28;;;;;;;1999.90;999.90;;;;;;;28.40;34.61;101963.31;5074688;28;20020;-66
2023/06/16 02:04:01;;;;;;;1999.90;999.90;;;;;;;28.36;34.51;101969.84;5073268;28;20387;-66
2023/06/16 02:06:37;;;;;;;1999.90;999.90;;;;;;;28.40;34.64;101971.38;5074116;28;20025;-65
2023/06/16 02:09:05;;;;;;;1999.90;999.90;;;;;;;28.70;33.87;101956.78;5074550;28;20487;-66
2023/06/16 02:11:33;;;;;;;1999.90;999.90;;;;;;;28.49;34.66;101961.81;5073979;28;20156;-66
2023/06/16 02:13:59;;;;;;;1999.90;999.90;;;;;;;28.43;34.21;101965.78;5091723;28;20024;-66
2023/06/16 02:16:25;;;;;;;1999.90;999.90;;;;;;;28.29;34.49;101965.84;5092484;28;20035;-65
2023/06/16 02:18:53;;;;;;;1999.90;999.90;;;;;;;28.29;35.08;101964.03;5073033;28;20383;-66
2023/06/16 02:21:20;;;;;;;1999.90;999.90;;;;;;;28.08;34.22;101966.31;5074094;28;20023;-66
2023/06/16 02:23:45;;;;;;;1999.90;999.90;;;;;;;28.39;34.59;101961.56;5072772;28;20047;-66
2023/06/16 02:26:10;;;;;;;1999.90;999.90;;;;;;;28.23;34.67;101954.56;5092494;28;20441;-66
2023/06/16 02:28:36;;;;;;;1999.90;999.90;;;;;;;28.22;34.51;101958.22;5073813;28;20028;-65
2023/06/16 02:31:01;;;;;;;1999.90;999.90;;;;;;;28.20;34.39;101965.50;5072786;28;20023;-65
2023/06/16 02:33:26;;;;;;;1999.90;999.90;;;;;;;27.95;34.66;101960.03;5091861;28;20468;-65
2023/06/16 02:35:52;;;;;;;1999.90;999.90;;;;;;;28.18;34.89;101959.38;5073435;28;20077;-65
2023/06/16 02:38:17;;;;;;;1999.90;999.90;;;;;;;28.03;34.78;101963.94;5073228;28;20020;-64
2023/06/16 02:40:43;;;;;;;1999.90;999.90;;;;;;;28.00;34.69;101957.91;5073413;28;20020;-65
2023/06/16 02:43:08;;;;;;;1999.90;999.90;;;;;;;27.61;34.37;101968.44;5073665;28;20024;-65
2023/06/16 02:45:33;;;;;;;1999.90;999.90;;;;;;;27.83;34.29;101972.44;5072948;28;20077;-65
2023/06/16 02:47:59;;;;;;;1999.90;999.90;;;;;;;27.52;33.73;101969.91;5073146;28;20070;-65
2023/06/16 02:50:24;;;;;;;1999.90;999.90;;;;;;;27.76;34.44;101967.44;5092080;28;20062;-65
2023/06/16 02:52:50;;;;;;;1999.90;999.90;;;;;;;27.99;33.07;101966.91;5072263;28;20024;-65
2023/06/16 02:55:16;;;;;;;1999.90;999.90;;;;;;;27.79;33.05;101971.75;5073145;28;20127;-65
2023/06/16 02:57:41;;;;;;;1999.90;999.90;;;;;;;27.68;32.71;101974.28;5072927;28;20024;-65
2023/06/16 03:00:10;;;;;;;1999.90;999.90;;;;;;;27.78;32.52;101972.75;5072757;28;20028;-65
2023/06/16 03:02:36;;;;;;;1999.90;999.90;;;;;;;27.30;32.37;101966.81;5072618;28;20020;-65
2023/06/16 03:05:04;;;;;;;1999.90;999.90;;;;;;;27.35;31.81;101964.72;5091530;28;20031;-65
2023/06/16 03:07:34;;;;;;;1999.90;999.90;;;;;;;27.28;31.85;101966.94;5072774;28;20031;-65
2023/06/16 03:10:07;;;;;;;1999.90;999.90;;;;;;;27.34;32.43;101979.09;5073436;28;20494;-65
2023/06/16 03:12:32;;;;;;;1999.90;999.90;;;;;;;27.19;32.47;101972.88;5073064;28;20499;-66
2023/06/16 03:14:57;;;;;;;1999.90;999.90;;;;;;;28.00;31.50;101965.97;5071698;28;20031;-65
2023/06/16 03:17:23;;;;;;;1999.90;999.90;;;;;;;27.54;31.69;101967.97;5072941;28;20063;-65
2023/06/16 03:19:49;;;;;;;1999.90;999.90;;;;;;;27.20;32.65;101969.22;5090913;28;20611;-65
2023/06/16 03:22:15;;;;;;;1999.90;999.90;;;;;;;27.42;31.99;101964.28;5072091;28;20081;-65
2023/06/16 03:24:42;;;;;;;1999.90;999.90;;;;;;;27.04;32.28;101977.41;5072489;28;20024;-66
2023/06/16 03:27:08;;;;;;;1999.90;999.90;;;;;;;27.34;32.26;101981.78;5071797;28;20059;-66
2023/06/16 03:29:34;;;;;;;1999.90;999.90;;;;;;;27.38;31.76;101977.97;5072812;28;20476;-65
2023/06/16 03:32:00;;;;;;;1999.90;999.90;;;;;;;26.92;32.28;101979.84;5072788;28;20522;-65
2023/06/16 03:34:26;;;;;;;1999.90;999.90;;;;;;;27.55;31.46;101985.81;5090075;28;20111;-65
2023/06/16 03:36:52;;;;;;;1999.90;999.90;;;;;;;27.38;31.68;101978.84;5072056;28;20031;-65
2023/06/16 03:39:17;;;;;;;1999.90;999.90;;;;;;;27.44;31.82;101980.28;5072527;28;20020;-65
2023/06/16 03:41:43;;;;;;;1999.90;999.90;;;;;;;27.73;30.74;101982.91;5070654;28;20081;-65
2023/06/16 03:44:09;;;;;;;1999.90;999.90;;;;;;;27.69;30.74;101976.88;5090662;28;20028;-65
2023/06/16 03:46:35;;;;;;;1999.90;999.90;;;;;;;27.91;31.23;101979.00;5090855;28;20059;-65
2023/06/16 03:49:00;;;;;;;1999.90;999.90;;;;;;;27.98;30.92;101971.41;5071651;28;20020;-65
2023/06/16 03:51:26;;;;;;;1999.90;999.90;;;;;;;27.89;30.83;101972.91;5072381;28;20391;-65
2023/06/16 03:53:51;;;;;;;1999.90;999.90;;;;;;;28.07;30.75;101978.91;5090156;28;20111;-65
2023/06/16 03:56:18;;;;;;;1999.90;999.90;;;;;;;28.12;30.69;101978.59;5071430;28;20047;-65
2023/06/16 03:58:43;;;;;;;1999.90;999.90;;;;;;;28.04;30.67;101980.91;5071726;28;20051;-65
2023/06/16 04:01:09;;;;;;;1999.90;999.90;;;;;;;28.45;30.46;101979.97;5072302;28;20593;-65
2023/06/16 04:03:38;;;;;;;1999.90;999.90;;;;;;;28.35;31.06;101984.25;5071110;28;20027;-65
2023/06/16 04:06:03;;;;;;;1999.90;999.90;;;;;;;28.15;31.22;101982.91;5090442;28;20028;-65
2023/06/16 04:08:28;;;;;;;1999.90;999.90;;;;;;;28.30;31.06;101986.38;5072081;28;20032;-65
2023/06/16 04:10:57;;;;;;;1999.90;999.90;;;;;;;28.09;31.37;101986.84;5089326;28;20059;-65
2023/06/16 04:13:25;;;;;;;1999.90;999.90;;;;;;;28.02;31.32;101990.91;5071846;28;20024;-65
2023/06/16 04:15:51;;;;;;;1999.90;999.90;;;;;;;28.04;31.91;101992.53;5071420;28;20365;-65
2023/06/16 04:18:16;;;;;;;1999.90;999.90;;;;;;;28.45;31.03;101990.72;5071146;28;20096;-65
2023/06/16 04:20:42;;;;;;;1999.90;999.90;;;;;;;28.39;31.52;101985.78;5071538;28;20031;-65
2023/06/16 04:23:10;;;;;;;1999.90;999.90;;;;;;;28.48;30.82;101984.28;5072056;28;20027;-65
2023/06/16 04:25:37;;;;;;;1999.90;999.90;;;;;;;28.06;30.78;101995.13;5088784;28;20035;-65
2023/06/16 04:28:02;;;;;;;1999.90;999.90;;;;;;;28.02;31.29;101997.16;5090117;28;20023;-65
2023/06/16 04:30:30;;;;;;;1999.90;999.90;;;;;;;28.34;30.79;101993.28;5070777;28;20086;-65
2023/06/16 04:32:58;;;;;;;1999.90;999.90;;;;;;;28.11;30.24;101998.38;5071323;28;20143;-65
2023/06/16 04:35:29;;;;;;;1999.90;999.90;;;;;;;28.48;30.04;102001.28;5090226;28;20027;-65
2023/06/16 04:37:56;;;;;;;1999.90;999.90;;;;;;;29.05;29.59;102000.06;5070497;28;20384;-66
2023/06/16 04:40:23;;;;;;;1999.90;999.90;;;;;;;28.79;30.39;101993.81;5071657;28;20024;-65
2023/06/16 04:42:49;;;;;;;1999.90;999.90;;;;;;;29.13;29.79;102001.34;5070945;28;20028;-65
2023/06/16 04:45:15;;;;;;;1999.90;999.90;;;;;;;29.65;29.92;101996.75;5070752;28;20063;-65
2023/06/16 04:47:41;;;;;;;1999.90;999.90;;;;;;;30.02;29.50;101999.47;5089379;28;20441;-65
2023/06/16 04:50:08;;;;;;;1999.90;999.90;;;;;;;31.14;28.00;102000.81;5089726;28;20020;-65
2023/06/16 04:52:34;;;;;;;1999.90;999.90;;;;;;;32.04;27.06;102005.28;5070673;28;20024;-65
2023/06/16 04:55:00;;;;;;;1999.90;999.90;;;;;;;32.63;25.95;102003.91;5064159;28;20052;-65
2023/06/16 04:57:25;;;;;;;1999.90;999.90;;;;;;;33.47;25.07;101999.41;5051170;28;20106;-66
2023/06/16 04:59:51;;;;;;;1999.90;999.90;;;;;;;34.28;23.43;102004.66;5068250;28;20036;-65
2023/06/16 05:02:17;;;;;;;1999.90;999.90;;;;;;;34.79;22.06;101999.88;5051351;28;20427;-65
2023/06/16 05:04:43;;;;;;;1999.90;999.90;;;;;;;34.19;23.17;101997.38;5050824;28;20119;-65
2023/06/16 05:07:10;;;;;;;1999.90;999.90;;;;;;;34.57;22.38;102000.22;5068605;28;20032;-65
2023/06/16 05:09:36;;;;;;;1999.90;999.90;;;;;;;35.13;22.75;101995.78;5051152;28;20111;-65
2023/06/16 05:12:02;;;;;;;1999.90;999.90;;;;;;;35.14;23.05;101998.34;5069458;28;20012;-65
2023/06/16 05:14:28;;;;;;;1999.90;999.90;;;;;;;35.67;22.72;102009.56;5068569;28;20028;-65
2023/06/16 05:16:53;;;;;;;1999.90;999.90;;;;;;;36.20;21.72;102005.19;5050745;28;20032;-65
2023/06/16 05:19:18;;;;;;;1999.90;999.90;;;;;;;35.91;21.50;102006.28;5069583;28;20024;-65
2023/06/16 05:21:44;;;;;;;1999.90;999.90;;;;;;;35.85;21.62;102001.47;5068365;28;20420;-65
2023/06/16 05:24:09;;;;;;;1999.90;999.90;;;;;;;35.28;21.86;102004.31;5069345;28;20039;-64
2023/06/16 05:26:35;;;;;;;1999.90;999.90;;;;;;;34.42;23.44;102006.09;5068973;28;20537;-64
2023/06/16 05:29:00;;;;;;;1999.90;999.90;;;;;;;33.38;24.07;102002.94;5050975;28;20032;-64
2023/06/16 05:31:26;;;;;;;1999.90;999.90;;;;;;;33.17;23.88;102000.22;5051289;28;20502;-65
2023/06/16 05:33:51;;;;;;;1999.90;999.90;;;;;;;32.71;24.59;102005.13;5049788;28;20033;-65
2023/06/16 05:36:16;;;;;;;1999.90;999.90;;;;;;;32.59;25.59;101991.66;5069222;28;20465;-64
2023/06/16 05:38:42;;;;;;;1999.90;999.90;;;;;;;32.24;25.55;101998.19;5068542;28;20025;-65
2023/06/16 05:41:07;;;;;;;1999.90;999.90;;;;;;;32.14;25.88;102005.34;5050437;28;20028;-65
2023/06/16 05:43:32;;;;;;;1999.90;999.90;;;;;;;32.17;25.72;102006.97;5068790;28;20029;-65
2023/06/16 05:45:58;;;;;;;1999.90;999.90;;;;;;;31.82;25.85;102008.91;5050678;28;20048;-64
2023/06/16 05:48:23;;;;;;;1999.90;999.90;;;;;;;31.80;27.11;102010.88;5050301;28;20071;-64
2023/06/16 05:50:49;;;;;;;1999.90;999.90;;;;;;;32.33;26.23;102009.22;5050476;28;20585;-65
2023/06/16 05:53:14;;;;;;;1999.90;999.90;;;;;;;32.28;25.54;102015.88;5068915;28;20139;-65
2023/06/16 05:55:40;;;;;;;1999.90;999.90;;;;;;;31.44;26.43;102015.56;5049195;28;20147;-65
2023/06/16 05:58:05;;;;;;;1999.90;999.90;;;;;;;32.16;26.33;102011.50;5069011;28;20032;-65
2023/06/16 06:00:33;;;;;;;1999.90;999.90;;;;;;;31.55;26.43;102006.59;5050882;28;20032;-65
2023/06/16 06:02:58;;;;;;;1999.90;999.90;;;;;;;31.44;26.13;102016.41;5049737;28;20365;-64
2023/06/16 06:05:24;;;;;;;1999.90;999.90;;;;;;;31.75;26.22;102016.66;5052320;28;20028;-65
2023/06/16 06:07:49;;;;;;;1999.90;999.90;;;;;;;31.67;25.55;102012.84;5071915;28;20060;-65
2023/06/16 06:10:15;;;;;;;1999.90;999.90;;;;;;;31.70;25.54;102020.72;5053302;28;20480;-65
2023/06/16 06:12:40;;;;;;;1999.90;999.90;;;;;;;33.16;24.31;102015.63;5071900;28;20046;-64
2023/06/16 06:15:06;;;;;;;1999.90;999.90;;;;;;;34.64;23.35;102023.09;5054153;28;20029;-64
2023/06/16 06:17:32;;;;;;;1999.90;999.90;;;;;;;35.08;22.67;102019.84;5053535;28;20494;-64
2023/06/16 06:19:58;;;;;;;1999.90;999.90;;;;;;;36.81;19.57;102019.81;5053843;28;20119;-65
2023/06/16 06:22:27;;;;;;;1999.90;999.90;;;;;;;37.81;19.20;102021.13;5071949;28;20404;-65
2023/06/16 06:24:52;;;;;;;1999.90;999.90;;;;;;;38.01;19.15;102028.00;5053033;28;20024;-64
2023/06/16 06:27:17;;;;;;;1999.90;999.90;;;;;;;38.66;19.38;102034.53;5053988;28;20499;-65
2023/06/16 06:29:43;;;;;;;1999.90;999.90;;;;;;;39.32;18.19;102037.13;5053599;28;20451;-65
2023/06/16 06:32:11;;;;;;;1999.90;999.90;;;;;;;39.49;17.95;102031.56;5071255;28;20028;-64
2023/06/16 06:34:37;;;;;;;1999.90;999.90;;;;;;;40.34;16.50;102038.03;5053403;28;20184;-65
2023/06/16 06:37:02;;;;;;;1999.90;999.90;;;;;;;40.78;16.21;102039.19;5070945;28;20024;-65
2023/06/16 06:39:27;;;;;;;1999.90;999.90;;;;;;;41.25;16.69;102037.13;5053900;28;20028;-65
2023/06/16 06:41:53;;;;;;;1999.90;999.90;;;;;;;41.07;16.24;102041.13;5053524;28;20028;-65
2023/06/16 06:44:18;;;;;;;1999.90;999.90;;;;;;;39.77;16.96;102044.78;5071148;28;20021;-65
2023/06/16 06:46:45;;;;;;;1999.90;999.90;;;;;;;39.62;16.75;102047.41;5053485;28;20035;-65
2023/06/16 06:49:10;;;;;;;1999.90;999.90;;;;;;;39.72;17.79;102048.03;5053716;28;20024;-64
2023/06/16 06:51:36;;;;;;;1999.90;999.90;;;;;;;40.08;16.61;102046.63;5070736;28;20074;-64
2023/06/16 06:54:01;;;;;;;1999.90;999.90;;;;;;;40.78;16.79;102041.94;5053490;28;20396;-65
2023/06/16 06:56:26;;;;;;;1999.90;999.90;;;;;;;41.04;16.75;102042.34;5053488;28;20044;-65
2023/06/16 06:58:53;;;;;;;1999.90;999.90;;;;;;;42.03;15.65;102046.53;5052532;28;20098;-65
2023/06/16 07:01:18;;;;;;;1999.90;999.90;;;;;;;43.17;14.68;102047.44;5053526;28;20457;-65
2023/06/16 07:03:44;;;;;;;1999.90;999.90;;;;;;;43.07;14.36;102046.13;5052834;28;20112;-65
2023/06/16 07:06:09;;;;;;;1999.90;999.90;;;;;;;42.49;15.04;102049.91;5052470;28;20117;-65
2023/06/16 07:08:35;;;;;;;1999.90;999.90;;;;;;;42.48;15.41;102043.56;5071208;28;20488;-65
2023/06/16 07:11:00;;;;;;;1999.90;999.90;;;;;;;42.92;14.19;102048.97;5053231;28;20109;-65
2023/06/16 07:13:26;;;;;;;1999.90;999.90;;;;;;;43.18;14.51;102045.53;5070422;28;20049;-65
2023/06/16 07:15:51;;;;;;;1999.90;999.90;;;;;;;43.33;13.20;102043.47;5052520;28;20357;-65
2023/06/16 07:18:17;;;;;;;1999.90;999.90;;;;;;;43.59;13.34;102052.91;5053231;28;20035;-65
2023/06/16 07:20:42;;;;;;;1999.90;999.90;;;;;;;43.34;13.16;102053.44;5051738;28;20119;-65
2023/06/16 07:23:07;;;;;;;1999.90;999.90;;;;;;;44.07;13.79;102051.16;5070925;28;20020;-65
2023/06/16 07:25:36;;;;;;;1999.90;999.90;;;;;;;42.89;14.42;102050.22;5070830;28;20021;-65
2023/06/16 07:28:06;;;;;;;1999.90;999.90;;;;;;;44.31;13.50;102052.44;5052289;28;20024;-65
2023/06/16 07:30:31;;;;;;;1999.90;999.90;;;;;;;45.33;13.96;102044.63;5070984;28;20057;-65
2023/06/16 07:32:57;;;;;;;1999.90;999.90;;;;;;;44.35;14.60;102043.56;5052293;28;20029;-65
2023/06/16 07:35:23;;;;;;;1999.90;999.90;;;;;;;45.93;12.69;102043.47;5070220;28;20027;-65
2023/06/16 07:37:48;;;;;;;1999.90;999.90;;;;;;;44.88;14.18;102059.19;5070250;28;20032;-65
2023/06/16 07:40:14;;;;;;;1999.90;999.90;;;;;;;45.02;12.95;102057.22;5070195;28;20101;-65
2023/06/16 07:42:45;;;;;;;998.13;905.67;;;;;;;45.39;12.19;102054.78;5052224;28;20041;-65
2023/06/16 07:45:12;;;;;;;1999.90;999.90;;;;;;;44.48;13.44;102058.38;5070457;28;20028;-65
2023/06/16 07:47:41;;;;;;;1999.90;999.90;;;;;;;44.30;14.65;102059.88;5051363;28;20031;-64
2023/06/16 07:50:07;;;;;;;1999.90;999.90;;;;;;;45.04;13.44;102063.38;5052500;28;20021;-65
2023/06/16 07:52:33;;;;;;;1270.35;949.67;;;;;;;45.46;12.21;102059.44;5052597;28;20413;-65
2023/06/16 07:54:59;;;;;;;1999.90;999.90;;;;;;;44.19;13.59;102061.31;5051206;28;20416;-64
2023/06/16 07:57:25;;;;;;;1999.90;999.90;;;;;;;45.26;13.35;102060.38;5070111;28;20066;-65
2023/06/16 07:59:50;;;;;;;1999.90;999.90;;;;;;;46.01;12.46;102051.47;5052062;28;20029;-65
2023/06/16 08:02:16;;;;;;;1285.65;962.55;;;;;;;45.72;12.44;102059.28;5069613;28;20025;-65
2023/06/16 08:04:41;;;;;;;1015.42;924.53;;;;;;;46.16;10.84;102053.91;5069682;28;20028;-65
2023/06/16 08:07:06;;;;;;;1001.40;913.25;;;;;;;46.62;10.18;102051.84;5069811;28;20473;-66
2023/06/16 08:09:32;;;;;;;1011.72;921.33;;;;;;;46.17;10.96;102049.25;5051089;28;20384;-65
2023/06/16 08:11:57;;;;;;;1004.80;915.53;;;;;;;46.36;11.21;102051.00;5069599;28;20051;-65
2023/06/16 08:14:22;;;;;;;994.13;906.97;;;;;;;46.25;10.03;102045.38;5051921;28;20028;-65
2023/06/16 08:16:48;;;;;;;988.17;902.28;;;;;;;46.17;11.03;102054.78;5068701;28;20538;-65
2023/06/16 08:19:13;;;;;;;961.70;881.13;;;;;;;44.32;10.94;102045.88;5051868;28;20028;-65
2023/06/16 08:21:39;;;;;;;991.65;905.13;;;;;;;45.39;12.56;102043.72;5051314;28;20508;-65
2023/06/16 08:24:05;;;;;;;948.72;870.80;;;;;;;45.23;9.39;102045.09;5051166;28;20033;-66
2023/06/16 08:26:31;;;;;;;990.33;904.50;;;;;;;45.27;11.37;102052.94;5069766;28;20024;-66
2023/06/16 08:28:56;;;;;;;977.97;894.72;;;;;;;46.42;10.10;102048.41;5050837;28;20032;-66
2023/06/16 08:31:22;;;;;;;967.88;885.88;;;;;;;46.25;10.16;102048.13;5051107;28;20016;-65
2023/06/16 08:33:50;;;;;;;1040.30;943.58;;;;;;;45.84;11.35;102042.03;5051101;28;20370;-66
2023/06/16 08:36:15;;;;;;;980.97;896.80;;;;;;;45.72;10.54;102047.41;5051432;28;20031;-66
2023/06/16 08:38:41;;;;;;;985.58;900.75;;;;;;;45.67;10.32;102048.09;5068544;28;20111;-65
2023/06/16 08:41:07;;;;;;;930.35;855.20;;;;;;;47.68;8.85;102040.56;5069697;28;20140;-65
2023/06/16 08:43:36;;;;;;;932.13;856.67;;;;;;;47.25;8.20;102049.84;5051098;28;20055;-66
2023/06/16 08:46:05;;;;;;;901.85;831.00;;;;;;;47.04;9.51;102042.91;5069407;28;20021;-66
2023/06/16 08:48:34;;;;;;;890.45;821.47;;;;;;;48.12;9.51;102042.22;5051367;28;20111;-66
2023/06/16 08:51:01;;;;;;;886.17;817.35;;;;;;;47.55;8.44;102038.00;5050514;28;20059;-66
2023/06/16 08:53:31;;;;;;;912.17;838.67;;;;;;;47.57;9.86;102041.38;5069458;28;20112;-65
2023/06/16 08:55:57;;;;;;;906.22;834.03;;;;;;;45.55;11.23;102036.06;5052634;28;20127;-65
2023/06/16 08:58:24;;;;;;;899.80;828.65;;;;;;;46.98;10.69;102043.78;5068653;28;20454;-65
2023/06/16 09:00:50;;;;;;;887.20;818.42;;;;;;;48.25;8.28;102042.03;5068978;28;20035;-64
2023/06/16 09:03:17;;;;;;;875.88;808.40;;;;;;;48.14;9.87;102035.41;5051392;28;20048;-66
2023/06/16 09:05:42;;;;;;;879.17;811.17;;;;;;;47.70;9.11;102035.63;5049836;28;20032;-65
2023/06/16 09:08:08;;;;;;;874.88;807.95;;;;;;;48.79;8.38;102035.50;5069349;28;20127;-65
2023/06/16 09:10:34;;;;;;;853.83;789.65;;;;;;;47.63;9.10;102039.59;5051257;28;20028;-65
2023/06/16 09:13:00;;;;;;;866.63;800.33;;;;;;;47.87;10.26;102034.97;5049781;28;20120;-66
2023/06/16 09:15:26;;;;;;;855.15;790.30;;;;;;;47.32;9.21;102039.56;5051337;28;20036;-65
2023/06/16 09:17:52;;;;;;;865.47;798.95;;;;;;;48.27;8.99;102039.88;5050913;28;20056;-65
2023/06/16 09:20:19;;;;;;;850.85;786.15;;;;;;;45.12;11.01;102043.00;5050782;28;20040;-65
2023/06/16 09:23:05;;;;;;;869.95;802.40;;;;;;;45.54;10.58;102034.38;5050950;28;20032;-65
2023/06/16 09:25:38;;;;;;;862.58;796.35;;;;;;;45.61;9.65;102035.16;5050631;28;20036;-65
2023/06/16 09:28:10;;;;;;;901.05;829.28;;;;;;;45.29;11.25;102043.38;5050577;28;20056;-64
2023/06/16 09:30:36;;;;;;;955.92;875.13;;;;;;;45.88;11.27;102030.34;5068743;28;20020;-64
2023/06/16 09:33:02;;;;;;;932.03;855.05;;;;;;;45.28;11.28;102035.31;5068608;28;20023;-64
2023/06/16 09:35:30;;;;;;;905.08;832.30;;;;;;;46.19;10.09;102036.03;5068803;28;20471;-64
2023/06/16 09:38:00;;;;;;;946.97;868.17;;;;;;;45.44;12.05;102031.19;5068756;28;20035;-66
2023/06/16 09:40:27;;;;;;;918.65;844.58;;;;;;;46.69;9.07;102029.66;5070093;28;20025;-64
2023/06/16 09:42:55;;;;;;;940.78;862.63;;;;;;;46.02;11.60;102036.59;5054498;28;20514;-63
2023/06/16 09:45:20;;;;;;;970.33;887.72;;;;;;;45.54;10.68;102028.84;5054903;28;20122;-64
2023/06/16 09:47:48;;;;;;;921.78;847.15;;;;;;;44.56;11.76;102027.84;5053297;28;20110;-64
2023/06/16 09:50:19;;;;;;;927.80;852.20;;;;;;;44.96;10.65;102032.44;5054718;28;20017;-64
2023/06/16 09:52:47;;;;;;;926.45;851.50;;;;;;;46.31;10.35;102028.75;5054187;28;20032;-64
2023/06/16 09:55:14;;;;;;;902.40;831.13;;;;;;;46.06;9.62;102029.56;5053719;28;20040;-64
2023/06/16 09:57:42;;;;;;;907.28;834.72;;;;;;;45.98;10.41;102023.47;5072494;28;20447;-64
2023/06/16 10:00:16;;;;;;;902.80;831.03;;;;;;;45.94;9.61;102023.06;5072618;28;20472;-65
2023/06/16 10:02:43;;;;;;;923.90;848.75;;;;;;;47.04;10.07;102026.31;5053023;28;20499;-65
2023/06/16 10:05:11;;;;;;;867.25;801.60;;;;;;;45.72;8.53;102020.63;5054385;28;20560;-64
2023/06/16 10:07:42;;;;;;;847.88;785.03;;;;;;;46.48;9.37;102025.38;5053724;28;20025;-64
2023/06/16 10:10:10;;;;;;;848.03;785.75;;;;;;;45.37;9.41;102021.06;5071693;28;20150;-65
2023/06/16 10:12:36;;;;;;;845.15;782.75;;;;;;;46.75;8.87;102014.09;5053737;28;20028;-66
2023/06/16 10:15:03;;;;;;;831.95;770.63;;;;;;;46.87;8.25;102018.59;5071513;28;20130;-66
2023/06/16 10:17:32;;;;;;;844.03;781.70;;;;;;;46.25;8.66;102007.56;5072316;28;20028;-66
2023/06/16 10:19:58;;;;;;;833.92;772.90;;;;;;;45.81;9.02;102015.72;5071705;28;20025;-66
2023/06/16 10:22:24;;;;;;;849.40;785.55;;;;;;;46.92;10.02;102015.13;5071149;28;20388;-66
2023/06/16 10:24:51;;;;;;;838.55;776.78;;;;;;;46.17;8.62;102016.94;5053740;28;20025;-66
2023/06/16 10:27:17;;;;;;;792.90;736.10;;;;;;;47.47;7.61;102007.88;5053743;28;20029;-66
2023/06/16 10:29:46;;;;;;;825.05;764.78;;;;;;;46.36;9.00;102008.69;5070889;28;20032;-66
2023/06/16 10:32:12;;;;;;;830.72;768.70;;;;;;;46.44;10.09;102004.81;5071934;28;20028;-66
2023/06/16 10:34:49;;;;;;;838.45;775.55;;;;;;;46.92;8.78;102000.47;5071140;28;20035;-66
2023/06/16 10:37:15;;;;;;;847.88;783.47;;;;;;;45.39;9.91;102002.34;5053314;28;20024;-66
2023/06/16 10:39:45;;;;;;;823.00;761.97;;;;;;;41.96;10.84;101996.22;5053546;28;20055;-66
2023/06/16 10:42:12;;;;;;;861.53;795.83;;;;;;;43.68;10.73;101999.38;5071639;28;20035;-65
2023/06/16 10:44:38;;;;;;;845.95;781.95;;;;;;;42.19;10.68;101997.88;5052552;28;20044;-65
2023/06/16 10:47:10;;;;;;;878.78;810.28;;;;;;;44.38;11.02;102001.81;5071564;28;20469;-66